In Rescue
 
Open Full Screen Window  High Contrast Mode
Wind Gusting 00 knots
08
May 25, 2022 9:08 PM EDT
Present Weather: Rain
Weather Information
Wind Direction
  060 °
Wind Speed
  08 kt (9 mph)
Wind Gust
  00 kt (0 mph)
Altimeter
29.98 in
Visibility
3 SM
Temperature
07° C
45° F
Dewpoint
07° C
45° F
Humidity
100%
Sky Condition
Overcast @ 200 ft
LIFR

METAR KSLH 260108Z AUTO 06008KT 3SM RA OVC002 07/07 A2998 RMK AO2

FAA Disclaimer: The data displayed is for advisory purposes only and is not to be used for flight planning or operations.